FCO weather

Leonardo da Vinci–Fiumicino Airport
Rome, Lazio, Italy

Public forecast

Using degrees Celsius for public forecast. Weather courtesy of forecast.io.

METAR (pilot weather report)

Retrieved 2018/08/17 09:20 UTC (35 minutes ago):

LIRF 170920Z VRB03KT CAVOK 29/18 Q1014 NOSIG

TAF (pilot weather forecast)

Retrieved 2018/08/17 06:22 UTC (4 hours ago):

TAF LIRF 170500Z 1706/1812 05006KT 9999 SCT030 TEMPO 1706/1710 RA BECMG 1708/1710 28012KT TEMPO 1710/1716 4000 SHRA BECMG 1718/1720 VRB04KT BECMG 1808/1810 25010KT